createdAt,value
2023-05-11T00:01:39.369Z,80.36
2023-05-11T00:04:07.545Z,80.74
2023-05-11T00:06:35.812Z,81.29
2023-05-11T00:09:03.841Z,80.87
2023-05-11T00:11:34.008Z,80.83
2023-05-11T00:14:02.295Z,80.40
2023-05-11T00:16:30.246Z,79.50
2023-05-11T00:19:32.659Z,79.81
2023-05-11T00:22:01.614Z,80.32
2023-05-11T00:24:29.860Z,79.96
2023-05-11T00:26:57.865Z,79.87
2023-05-11T00:29:25.840Z,79.28
2023-05-11T00:31:53.803Z,79.81
2023-05-11T00:34:21.780Z,80.77
2023-05-11T00:36:49.820Z,80.76
2023-05-11T00:39:18.526Z,80.07
2023-05-11T00:41:46.453Z,79.93
2023-05-11T00:44:14.339Z,80.86
2023-05-11T00:46:43.384Z,79.91
2023-05-11T00:49:12.118Z,81.44
2023-05-11T00:51:41.608Z,80.83
2023-05-11T00:54:15.564Z,79.65
2023-05-11T00:56:43.530Z,79.12
2023-05-11T00:59:11.643Z,79.47
2023-05-11T01:01:39.522Z,79.95
2023-05-11T01:04:08.143Z,80.36
2023-05-11T01:06:52.209Z,79.14
2023-05-11T01:09:59.391Z,79.64
2023-05-11T01:12:53.467Z,80.33
2023-05-11T01:15:30.237Z,81.03
2023-05-11T01:18:14.702Z,81.15
2023-05-11T01:20:46.559Z,81.72
2023-05-11T01:23:26.344Z,81.78
2023-05-11T01:26:31.739Z,81.41
2023-05-11T01:29:17.334Z,82.10
2023-05-11T01:31:48.569Z,82.03
2023-05-11T01:34:21.743Z,81.84
2023-05-11T01:37:01.065Z,83.43
2023-05-11T01:39:35.050Z,83.73
2023-05-11T01:42:11.525Z,83.03
2023-05-11T01:44:44.698Z,83.74
2023-05-11T01:47:15.111Z,83.33
2023-05-11T01:49:44.854Z,82.94
2023-05-11T01:52:18.285Z,81.76
2023-05-11T01:54:48.941Z,81.22
2023-05-11T01:57:18.336Z,81.18
2023-05-11T01:59:49.300Z,80.64
2023-05-11T02:02:20.095Z,80.52
2023-05-11T02:04:48.970Z,80.40
2023-05-11T02:07:18.832Z,80.08
2023-05-11T02:09:48.542Z,78.78
2023-05-11T02:12:20.067Z,79.60
2023-05-11T02:14:50.563Z,79.22
2023-05-11T02:17:22.303Z,79.52
2023-05-11T02:19:51.805Z,78.89
2023-05-11T02:22:21.272Z,79.07
2023-05-11T02:24:50.171Z,78.15
2023-05-11T02:27:18.127Z,78.57
2023-05-11T02:29:46.762Z,79.07
2023-05-11T02:32:18.414Z,78.48
2023-05-11T02:34:54.661Z,79.11
2023-05-11T02:37:25.848Z,79.79
2023-05-11T02:40:06.974Z,78.97
2023-05-11T02:42:38.730Z,79.10
2023-05-11T02:45:09.197Z,79.70
2023-05-11T02:47:42.797Z,79.31
2023-05-11T02:50:12.897Z,79.87
2023-05-11T02:54:39.433Z,79.53
2023-05-11T02:57:07.648Z,78.94
2023-05-11T02:59:37.147Z,79.44
2023-05-11T03:02:05.456Z,80.69
2023-05-11T03:04:34.553Z,80.15
2023-05-11T03:07:02.502Z,80.69
2023-05-11T03:09:30.884Z,79.94
2023-05-11T03:11:59.742Z,80.54
2023-05-11T03:14:28.719Z,80.46
2023-05-11T03:16:59.628Z,80.44
2023-05-11T03:19:29.202Z,80.31
2023-05-11T03:21:59.112Z,79.46
2023-05-11T03:24:27.578Z,80.00
2023-05-11T03:26:56.877Z,80.26
2023-05-11T03:29:29.196Z,80.41
2023-05-11T03:31:57.246Z,79.37
2023-05-11T03:34:26.158Z,80.05
2023-05-11T03:36:55.223Z,80.21
2023-05-11T03:39:24.502Z,79.64
2023-05-11T03:41:53.704Z,80.25
2023-05-11T03:44:24.216Z,81.11
2023-05-11T03:46:55.076Z,81.85
2023-05-11T03:49:24.588Z,81.82
2023-05-11T03:51:53.607Z,82.37
2023-05-11T03:54:22.025Z,83.17
2023-05-11T03:56:51.959Z,82.31
2023-05-11T03:59:21.321Z,82.20
2023-05-11T04:01:53.311Z,81.85
2023-05-11T04:04:21.635Z,82.22
2023-05-11T04:06:49.853Z,82.77
2023-05-11T04:09:21.055Z,83.61
2023-05-11T04:11:48.945Z,83.62
2023-05-11T04:14:20.995Z,84.49
2023-05-11T04:16:49.150Z,84.14
2023-05-11T04:19:17.138Z,83.95
2023-05-11T04:21:45.150Z,84.22
2023-05-11T04:24:13.144Z,84.94
2023-05-11T04:26:41.011Z,86.16
2023-05-11T04:29:11.036Z,87.67
2023-05-11T04:31:39.079Z,88.45
2023-05-11T04:34:08.626Z,88.80
2023-05-11T04:36:37.957Z,90.24
2023-05-11T04:39:07.754Z,91.34
2023-05-11T04:41:38.494Z,91.94
2023-05-11T04:44:07.174Z,92.17
2023-05-11T04:46:35.841Z,90.94
2023-05-11T04:49:04.477Z,91.59
2023-05-11T04:51:36.898Z,91.05
2023-05-11T04:54:05.167Z,90.16
2023-05-11T04:56:33.180Z,90.15
2023-05-11T04:59:02.474Z,90.43
2023-05-11T05:01:32.417Z,90.25
2023-05-11T05:04:00.586Z,90.38
2023-05-11T05:06:28.593Z,89.60
2023-05-11T05:08:58.084Z,91.35
2023-05-11T05:11:26.582Z,92.38
2023-05-11T05:13:55.179Z,91.53
2023-05-11T05:16:23.490Z,91.89
2023-05-11T05:18:51.458Z,91.02
2023-05-11T05:21:19.527Z,91.73
2023-05-11T05:23:47.448Z,91.96
2023-05-11T05:26:15.916Z,92.62
2023-05-11T05:28:44.726Z,92.15
2023-05-11T05:31:13.127Z,91.95
2023-05-11T05:33:42.191Z,90.64
2023-05-11T05:36:10.146Z,92.16
2023-05-11T05:38:38.372Z,92.14
2023-05-11T05:41:07.169Z,92.56
2023-05-11T05:43:39.121Z,92.01
2023-05-11T05:46:07.179Z,92.32
2023-05-11T05:48:35.318Z,91.12
2023-05-11T05:51:03.481Z,90.42
2023-05-11T05:53:31.473Z,89.67
2023-05-11T05:55:59.502Z,90.54
2023-05-11T05:58:27.654Z,90.53
2023-05-11T06:00:56.612Z,88.95
2023-05-11T06:03:26.419Z,89.15
2023-05-11T06:05:57.877Z,88.81
2023-05-11T06:08:26.181Z,89.10
2023-05-11T06:10:54.211Z,88.60
2023-05-11T06:13:22.215Z,88.76
2023-05-11T06:15:50.529Z,88.48
2023-05-11T06:18:36.747Z,86.96
2023-05-11T06:21:07.588Z,87.67
2023-05-11T06:23:36.476Z,86.28
2023-05-11T06:26:04.644Z,86.75
2023-05-11T06:28:34.029Z,85.80
2023-05-11T06:31:05.814Z,85.67
2023-05-11T06:33:36.744Z,86.37
2023-05-11T06:36:09.472Z,87.09
2023-05-11T06:38:37.646Z,86.41
2023-05-11T06:41:06.519Z,86.11
2023-05-11T06:43:34.691Z,86.27
2023-05-11T06:46:04.627Z,86.33
2023-05-11T06:48:33.593Z,85.98
2023-05-11T06:51:01.801Z,86.30
2023-05-11T06:53:29.788Z,84.89
2023-05-11T06:55:59.274Z,84.99
2023-05-11T06:58:27.448Z,84.03
2023-05-11T07:00:55.613Z,83.83
2023-05-11T07:03:24.095Z,83.70
2023-05-11T07:05:52.184Z,82.78
2023-05-11T07:08:20.601Z,80.88
2023-05-11T07:10:48.665Z,81.01
2023-05-11T07:13:16.496Z,79.59
2023-05-11T07:15:44.458Z,77.83
2023-05-11T07:18:12.518Z,77.08
2023-05-11T07:20:41.216Z,77.40
2023-05-11T07:23:11.217Z,77.08
2023-05-11T07:25:39.224Z,75.77
2023-05-11T07:28:07.159Z,76.21
2023-05-11T07:30:35.634Z,76.72
2023-05-11T07:33:04.274Z,78.07
2023-05-11T07:35:32.924Z,77.60
2023-05-11T07:38:00.937Z,76.78
2023-05-11T07:40:29.422Z,78.27
2023-05-11T07:42:57.331Z,76.78
2023-05-11T07:45:25.320Z,77.74
2023-05-11T07:47:53.812Z,77.29
2023-05-11T07:50:24.472Z,75.31
2023-05-11T07:52:53.104Z,76.01
2023-05-11T07:55:25.186Z,76.20
2023-05-11T07:57:55.953Z,75.96
2023-05-11T08:00:24.194Z,76.12
2023-05-11T08:02:53.261Z,76.42
2023-05-11T08:05:21.951Z,76.88
2023-05-11T08:07:49.979Z,78.05
2023-05-11T08:10:18.157Z,78.18
2023-05-11T08:12:46.038Z,78.31
2023-05-11T08:15:13.947Z,79.03
2023-05-11T08:17:43.511Z,80.18
2023-05-11T08:20:11.843Z,80.00
2023-05-11T08:22:40.056Z,79.61
2023-05-11T08:25:08.528Z,80.12
2023-05-11T08:27:36.665Z,79.91
2023-05-11T08:30:05.048Z,79.07
2023-05-11T08:32:50.162Z,79.74
2023-05-11T08:35:24.746Z,80.22
2023-05-11T08:37:52.671Z,80.57
2023-05-11T08:40:21.916Z,81.10
2023-05-11T08:42:54.426Z,82.23
2023-05-11T08:45:23.321Z,82.41
2023-05-11T08:47:53.138Z,83.19
2023-05-11T08:50:22.574Z,81.91
2023-05-11T08:52:50.604Z,82.13
2023-05-11T08:55:18.879Z,81.66
2023-05-11T08:57:47.450Z,81.34
2023-05-11T09:00:16.901Z,81.98
2023-05-11T09:02:45.803Z,81.86
2023-05-11T09:05:15.065Z,82.91
2023-05-11T09:07:44.344Z,82.79
2023-05-11T09:10:14.001Z,82.34
2023-05-11T09:12:42.493Z,81.89
2023-05-11T09:15:11.137Z,82.18
2023-05-11T09:17:39.201Z,82.30
2023-05-11T09:20:09.664Z,82.82
2023-05-11T09:22:47.454Z,83.02
2023-05-11T09:25:17.997Z,81.54
2023-05-11T09:27:47.997Z,82.69
2023-05-11T09:30:23.706Z,82.06
2023-05-11T09:33:04.680Z,82.66
2023-05-11T09:35:34.959Z,83.33
2023-05-11T09:38:10.643Z,83.47
2023-05-11T09:40:50.723Z,82.70
2023-05-11T09:43:21.706Z,82.41
2023-05-11T09:45:52.344Z,82.48
2023-05-11T09:48:20.529Z,82.31
2023-05-11T09:50:50.026Z,83.70
2023-05-11T09:53:18.676Z,82.54
2023-05-11T09:55:55.578Z,83.17
2023-05-11T09:58:24.187Z,82.96
2023-05-11T10:00:53.916Z,82.35
2023-05-11T10:03:22.326Z,82.45
2023-05-11T10:06:01.009Z,81.88
2023-05-11T10:08:30.733Z,81.20
2023-05-11T10:10:58.837Z,82.23
2023-05-11T10:13:27.357Z,81.48
2023-05-11T10:15:56.565Z,81.55
2023-05-11T10:18:24.727Z,83.35
2023-05-11T10:20:53.858Z,82.56
2023-05-11T10:23:22.518Z,82.58
2023-05-11T10:25:51.872Z,81.91
2023-05-11T10:28:21.296Z,82.25
2023-05-11T10:30:49.884Z,80.41
2023-05-11T10:33:18.531Z,80.94
2023-05-11T10:35:46.741Z,80.06
2023-05-11T10:38:16.547Z,80.67
2023-05-11T10:40:46.449Z,79.48
2023-05-11T10:43:53.676Z,79.15
2023-05-11T10:46:41.425Z,77.70
2023-05-11T10:49:35.524Z,78.34
2023-05-11T10:52:21.304Z,78.61
2023-05-11T10:55:40.014Z,78.06
2023-05-11T10:58:13.571Z,78.53
2023-05-11T11:01:18.195Z,79.42
2023-05-11T11:04:13.174Z,79.50
2023-05-11T11:06:43.447Z,78.46
2023-05-11T11:09:16.481Z,77.45
2023-05-11T11:11:47.360Z,78.44
2023-05-11T11:14:16.934Z,78.03
2023-05-11T11:17:17.407Z,77.82
2023-05-11T11:19:46.336Z,78.18
2023-05-11T11:22:41.895Z,79.14
2023-05-11T11:25:14.251Z,79.31
2023-05-11T11:27:42.297Z,79.55
2023-05-11T11:30:24.689Z,77.90
2023-05-11T11:32:55.104Z,77.85
2023-05-11T11:35:44.989Z,77.92
2023-05-11T11:38:20.810Z,76.82
2023-05-11T11:40:53.111Z,77.72
2023-05-11T11:43:23.772Z,77.07
2023-05-11T11:45:56.128Z,78.34
2023-05-11T11:48:41.681Z,78.22
2023-05-11T11:51:12.496Z,79.01
2023-05-11T11:53:44.714Z,78.94
2023-05-11T11:56:15.651Z,79.26
2023-05-11T11:58:43.607Z,78.89
2023-05-11T12:01:23.710Z,78.25
2023-05-11T12:04:17.458Z,78.37
2023-05-11T12:06:51.055Z,77.72
2023-05-11T12:09:19.682Z,77.95
2023-05-11T12:11:48.581Z,77.80
2023-05-11T12:14:17.332Z,75.85
2023-05-11T12:17:13.606Z,75.83
2023-05-11T12:19:45.879Z,75.92
2023-05-11T12:22:15.681Z,75.90
2023-05-11T12:24:44.061Z,75.26
2023-05-11T12:27:12.412Z,74.76
2023-05-11T12:29:41.645Z,74.88
2023-05-11T12:32:12.956Z,72.92
2023-05-11T12:34:41.202Z,73.24
2023-05-11T12:37:09.342Z,72.75
2023-05-11T12:39:38.043Z,72.14
2023-05-11T12:42:06.485Z,71.33
2023-05-11T12:44:34.523Z,71.25
2023-05-11T12:47:02.776Z,71.84
2023-05-11T12:49:31.427Z,72.57
2023-05-11T12:51:59.574Z,71.92
2023-05-11T12:54:50.622Z,71.81
2023-05-11T12:57:29.792Z,69.35
2023-05-11T13:00:18.090Z,69.95
2023-05-11T13:02:53.041Z,70.05
2023-05-11T13:05:28.340Z,72.25
2023-05-11T13:07:59.756Z,70.06
2023-05-11T13:10:28.122Z,72.00
2023-05-11T13:12:56.572Z,71.34
2023-05-11T13:15:25.696Z,70.97
2023-05-11T13:18:00.352Z,71.45
2023-05-11T13:20:30.793Z,71.07
2023-05-11T13:23:14.042Z,72.01
2023-05-11T13:25:51.844Z,71.02
2023-05-11T13:28:22.224Z,71.87
2023-05-11T13:30:53.946Z,72.71
2023-05-11T13:33:22.284Z,72.98
2023-05-11T13:35:50.347Z,72.71
2023-05-11T13:38:18.213Z,73.43
2023-05-11T13:40:46.793Z,72.81
2023-05-11T13:43:14.712Z,72.15
2023-05-11T13:45:43.049Z,73.17
2023-05-11T13:48:11.332Z,71.87
2023-05-11T13:50:39.983Z,71.03
2023-05-11T13:53:07.838Z,72.42
2023-05-11T13:55:38.388Z,72.18
2023-05-11T13:58:06.646Z,70.75
2023-05-11T14:00:35.386Z,70.67
2023-05-11T14:03:04.300Z,70.17
2023-05-11T14:05:32.642Z,70.91
2023-05-11T14:08:01.206Z,71.03
2023-05-11T14:10:29.950Z,71.21
2023-05-11T14:12:58.618Z,71.55
2023-05-11T14:15:26.544Z,71.84
2023-05-11T14:17:55.297Z,72.66
2023-05-11T14:20:23.884Z,72.47
2023-05-11T14:22:52.648Z,72.37
2023-05-11T14:25:21.467Z,71.92
2023-05-11T14:27:54.903Z,71.74
2023-05-11T14:30:23.677Z,70.26
2023-05-11T14:33:03.343Z,72.16
2023-05-11T14:35:31.679Z,70.46
2023-05-11T14:38:01.260Z,69.01
2023-05-11T14:40:29.346Z,70.07
2023-05-11T14:42:57.461Z,70.04
2023-05-11T14:45:25.387Z,69.63
2023-05-11T14:47:53.397Z,70.31
2023-05-11T14:50:21.834Z,70.52
2023-05-11T14:52:50.122Z,70.44
2023-05-11T14:55:18.725Z,69.68
2023-05-11T14:57:46.873Z,70.13
2023-05-11T15:00:16.060Z,70.10
2023-05-11T15:02:44.500Z,70.42
2023-05-11T15:05:13.087Z,69.45
2023-05-11T15:07:41.568Z,68.76
2023-05-11T15:10:09.961Z,68.85
2023-05-11T15:12:38.590Z,69.63
2023-05-11T15:15:08.451Z,69.89
2023-05-11T15:17:36.994Z,69.40
2023-05-11T15:20:06.846Z,69.14
2023-05-11T15:22:35.218Z,69.62
2023-05-11T15:25:04.380Z,70.83
2023-05-11T15:27:33.385Z,70.91
2023-05-11T15:30:05.292Z,71.37
2023-05-11T15:32:35.078Z,72.08
2023-05-11T15:35:03.368Z,70.70
2023-05-11T15:37:32.246Z,70.54
2023-05-11T15:40:00.372Z,71.09
2023-05-11T15:42:28.757Z,71.53
2023-05-11T15:44:57.556Z,71.05
2023-05-11T15:47:26.050Z,71.06
2023-05-11T15:49:55.115Z,70.61
2023-05-11T15:52:23.816Z,71.07
2023-05-11T15:54:52.589Z,70.76
2023-05-11T15:57:20.992Z,71.06
2023-05-11T15:59:49.749Z,71.61
2023-05-11T16:02:18.240Z,71.43
2023-05-11T16:04:47.008Z,71.79
2023-05-11T16:07:15.787Z,71.62
2023-05-11T16:09:44.303Z,71.17
2023-05-11T16:12:12.811Z,72.12
2023-05-11T16:14:41.238Z,72.27
2023-05-11T16:17:10.368Z,72.42
2023-05-11T16:19:38.737Z,71.85
2023-05-11T16:22:07.813Z,71.46
2023-05-11T16:24:36.483Z,71.77
2023-05-11T16:27:05.566Z,72.03
2023-05-11T16:29:34.164Z,72.01
2023-05-11T16:32:02.987Z,71.81
2023-05-11T16:34:31.582Z,71.41
2023-05-11T16:37:00.040Z,71.81
2023-05-11T16:39:28.580Z,71.90
2023-05-11T16:41:57.023Z,73.36
2023-05-11T16:44:25.498Z,72.05
2023-05-11T16:46:54.301Z,72.88
2023-05-11T16:49:23.904Z,73.58
2023-05-11T16:51:53.027Z,72.68
2023-05-11T16:54:21.245Z,72.34
2023-05-11T16:56:49.856Z,72.20
2023-05-11T16:59:18.378Z,72.46
2023-05-11T17:01:46.918Z,72.16
2023-05-11T17:04:16.251Z,74.75
2023-05-11T17:06:44.666Z,73.92
2023-05-11T17:09:14.047Z,72.95
2023-05-11T17:11:42.672Z,73.38
2023-05-11T17:14:11.346Z,73.42
2023-05-11T17:16:39.857Z,72.80
2023-05-11T17:19:08.738Z,72.21
2023-05-11T17:21:38.396Z,73.92
2023-05-11T17:24:08.028Z,74.38
2023-05-11T17:26:47.246Z,73.50
2023-05-11T17:29:17.518Z,72.96
2023-05-11T17:31:49.244Z,72.73
2023-05-11T17:34:22.342Z,72.62
2023-05-11T17:36:53.138Z,73.63
2023-05-11T17:39:21.798Z,72.82
2023-05-11T17:41:50.409Z,73.08
2023-05-11T17:44:18.893Z,73.11
2023-05-11T17:46:47.717Z,72.81
2023-05-11T17:49:16.423Z,72.50
2023-05-11T17:51:44.903Z,73.82
2023-05-11T17:54:13.342Z,75.24
2023-05-11T17:56:41.887Z,75.38
2023-05-11T17:59:11.524Z,75.02
2023-05-11T18:01:40.147Z,74.97
2023-05-11T18:04:09.096Z,75.27
2023-05-11T18:06:37.590Z,75.22
2023-05-11T18:09:06.425Z,76.02
2023-05-11T18:11:35.439Z,75.77
2023-05-11T18:14:04.259Z,76.11
2023-05-11T18:16:33.161Z,76.22
2023-05-11T18:19:01.772Z,76.57
2023-05-11T18:21:31.176Z,76.58
2023-05-11T18:23:59.834Z,76.68
2023-05-11T18:26:28.364Z,76.46
2023-05-11T18:28:57.052Z,76.32
2023-05-11T18:31:26.039Z,76.68
2023-05-11T18:33:54.881Z,76.30
2023-05-11T18:36:24.007Z,77.26
2023-05-11T18:38:52.453Z,77.89
2023-05-11T18:41:21.255Z,78.45
2023-05-11T18:43:49.848Z,78.54
2023-05-11T18:46:18.668Z,79.29
2023-05-11T18:48:47.008Z,78.57
2023-05-11T18:51:19.282Z,79.40
2023-05-11T18:53:47.741Z,79.05
2023-05-11T18:56:17.740Z,78.68
2023-05-11T18:58:46.836Z,78.74
2023-05-11T19:01:16.044Z,78.70
2023-05-11T19:03:44.895Z,79.30
2023-05-11T19:06:13.730Z,79.32
2023-05-11T19:08:42.553Z,79.41
2023-05-11T19:11:11.133Z,79.51
2023-05-11T19:13:40.155Z,79.86
2023-05-11T19:16:08.845Z,80.15
2023-05-11T19:18:39.183Z,80.24
2023-05-11T19:21:08.120Z,80.61
2023-05-11T19:23:36.903Z,80.88
2023-05-11T19:26:05.618Z,80.69
2023-05-11T19:28:34.153Z,80.37
2023-05-11T19:31:04.967Z,80.71
2023-05-11T19:33:34.110Z,80.10
2023-05-11T19:36:02.171Z,81.33
2023-05-11T19:38:30.934Z,79.86
2023-05-11T19:40:59.891Z,78.83
2023-05-11T19:43:28.384Z,77.11
2023-05-11T19:45:56.726Z,76.12
2023-05-11T19:48:24.823Z,76.69
2023-05-11T19:50:52.866Z,75.14
2023-05-11T19:53:20.880Z,74.66
2023-05-11T19:55:49.077Z,75.25
2023-05-11T19:58:17.704Z,75.63
2023-05-11T20:00:46.481Z,75.24
2023-05-11T20:03:15.021Z,75.58
2023-05-11T20:05:43.632Z,75.38
2023-05-11T20:08:12.051Z,75.61
2023-05-11T20:10:40.612Z,75.61
2023-05-11T20:13:09.064Z,75.84
2023-05-11T20:15:37.188Z,75.51
2023-05-11T20:18:05.571Z,76.14
2023-05-11T20:20:34.276Z,76.39
2023-05-11T20:23:02.918Z,75.96
2023-05-11T20:25:31.555Z,76.29
2023-05-11T20:27:59.918Z,76.73
2023-05-11T20:30:28.397Z,76.84
2023-05-11T20:35:28.406Z,77.29
2023-05-11T20:37:56.441Z,76.88
2023-05-11T20:40:25.814Z,77.43
2023-05-11T20:42:53.812Z,77.56
2023-05-11T20:45:21.939Z,77.36
2023-05-11T20:47:50.475Z,77.64
2023-05-11T20:50:18.910Z,78.08
2023-05-11T20:52:47.290Z,77.81
2023-05-11T20:55:16.333Z,77.70
2023-05-11T20:57:44.498Z,77.45
2023-05-11T21:00:16.480Z,77.83
2023-05-11T21:02:46.208Z,78.09
2023-05-11T21:05:14.589Z,78.01
2023-05-11T21:07:42.540Z,77.72
2023-05-11T21:10:12.696Z,77.55
2023-05-11T21:12:40.729Z,77.40
2023-05-11T21:15:09.396Z,78.40
2023-05-11T21:17:37.541Z,77.39
2023-05-11T21:20:06.472Z,78.13
2023-05-11T21:22:35.666Z,78.20
2023-05-11T21:25:04.509Z,78.66
2023-05-11T21:27:33.800Z,78.36
2023-05-11T21:30:01.666Z,78.68
2023-05-11T21:32:29.883Z,78.26
2023-05-11T21:34:57.817Z,77.80
2023-05-11T21:37:25.824Z,78.17
2023-05-11T21:39:53.648Z,78.89
2023-05-11T21:42:22.019Z,79.19
2023-05-11T21:44:49.887Z,77.72
2023-05-11T21:47:18.005Z,77.92
2023-05-11T21:49:46.707Z,77.78
2023-05-11T21:52:14.619Z,77.85
2023-05-11T21:54:42.563Z,77.61
2023-05-11T21:57:10.544Z,77.37
2023-05-11T21:59:38.513Z,77.88
2023-05-11T22:02:07.011Z,77.97
2023-05-11T22:04:35.201Z,77.69
2023-05-11T22:07:03.797Z,78.30
2023-05-11T22:09:32.207Z,78.70
2023-05-11T22:12:00.039Z,78.11
2023-05-11T22:14:28.029Z,78.93
2023-05-11T22:16:55.906Z,78.30
2023-05-11T22:19:23.899Z,78.50
2023-05-11T22:21:51.777Z,79.64
2023-05-11T22:24:21.392Z,79.30
2023-05-11T22:26:49.294Z,79.60
2023-05-11T22:29:17.298Z,80.10
2023-05-11T22:31:46.300Z,79.95
2023-05-11T22:34:14.793Z,80.23
2023-05-11T22:36:42.776Z,79.93
2023-05-11T22:39:11.650Z,79.69
2023-05-11T22:41:39.744Z,79.45
2023-05-11T22:44:08.998Z,77.08
2023-05-11T22:46:37.400Z,76.06
2023-05-11T22:49:05.349Z,76.18
2023-05-11T22:51:33.219Z,76.79
2023-05-11T22:54:01.304Z,75.74
2023-05-11T22:56:30.859Z,75.20
2023-05-11T22:59:01.401Z,75.76
2023-05-11T23:01:29.426Z,76.08
2023-05-11T23:03:58.367Z,75.90
2023-05-11T23:06:29.638Z,75.63
2023-05-11T23:08:57.697Z,75.52
2023-05-11T23:11:25.562Z,75.52
2023-05-11T23:13:53.711Z,75.42
2023-05-11T23:16:21.726Z,75.19
2023-05-11T23:18:49.811Z,75.83
2023-05-11T23:21:18.437Z,76.40
2023-05-11T23:23:46.543Z,75.88
2023-05-11T23:26:14.657Z,75.76
2023-05-11T23:28:42.560Z,75.08
2023-05-11T23:31:10.424Z,76.29
2023-05-11T23:33:39.526Z,75.86
2023-05-11T23:36:08.289Z,75.50
2023-05-11T23:38:36.201Z,75.54
2023-05-11T23:41:06.685Z,76.05
2023-05-11T23:43:34.836Z,76.92
2023-05-11T23:46:02.737Z,76.88
2023-05-11T23:48:30.961Z,76.50
2023-05-11T23:50:58.918Z,76.81
2023-05-11T23:53:26.959Z,76.49
2023-05-11T23:55:54.979Z,76.80
2023-05-11T23:58:23.308Z,76.44
